sensor_id;sensor_type;location;lat;lon;timestamp;pressure;altitude;pressure_sealevel;temperature;humidity
5500;BME280;2772;42.700;23.304;2023-05-19T00:02:07;95257.56;;;13.52;100.00
5500;BME280;2772;42.700;23.304;2023-05-19T00:04:34;95264.13;;;13.54;100.00
5500;BME280;2772;42.700;23.304;2023-05-19T00:07:02;95263.50;;;13.57;100.00
5500;BME280;2772;42.700;23.304;2023-05-19T00:09:31;95262.38;;;13.58;100.00
5500;BME280;2772;42.700;23.304;2023-05-19T00:11:59;95257.50;;;13.60;100.00
5500;BME280;2772;42.700;23.304;2023-05-19T00:14:26;95262.25;;;13.55;100.00
5500;BME280;2772;42.700;23.304;2023-05-19T00:16:54;95266.66;;;13.59;100.00
5500;BME280;2772;42.700;23.304;2023-05-19T00:19:22;95264.44;;;13.61;100.00
5500;BME280;2772;42.700;23.304;2023-05-19T00:21:49;95259.25;;;13.56;100.00
5500;BME280;2772;42.700;23.304;2023-05-19T00:24:16;95255.19;;;13.50;100.00
5500;BME280;2772;42.700;23.304;2023-05-19T00:26:44;95255.00;;;13.55;100.00
5500;BME280;2772;42.700;23.304;2023-05-19T00:29:11;95248.44;;;13.44;100.00
5500;BME280;2772;42.700;23.304;2023-05-19T00:31:42;95246.88;;;13.43;100.00
5500;BME280;2772;42.700;23.304;2023-05-19T00:34:09;95250.94;;;13.49;100.00
5500;BME280;2772;42.700;23.304;2023-05-19T00:36:36;95254.41;;;13.50;100.00
5500;BME280;2772;42.700;23.304;2023-05-19T00:39:02;95252.44;;;13.30;100.00
5500;BME280;2772;42.700;23.304;2023-05-19T00:41:29;95241.41;;;13.31;100.00
5500;BME280;2772;42.700;23.304;2023-05-19T00:43:57;95247.69;;;13.35;100.00
5500;BME280;2772;42.700;23.304;2023-05-19T00:46:25;95242.53;;;13.22;100.00
5500;BME280;2772;42.700;23.304;2023-05-19T00:48:51;95233.88;;;13.25;100.00
5500;BME280;2772;42.700;23.304;2023-05-19T00:51:18;95245.06;;;13.18;100.00
5500;BME280;2772;42.700;23.304;2023-05-19T00:53:46;95238.31;;;13.21;100.00
5500;BME280;2772;42.700;23.304;2023-05-19T00:56:15;95240.19;;;13.20;100.00
5500;BME280;2772;42.700;23.304;2023-05-19T00:58:43;95238.47;;;13.16;100.00
5500;BME280;2772;42.700;23.304;2023-05-19T01:01:11;95243.50;;;13.09;100.00
5500;BME280;2772;42.700;23.304;2023-05-19T01:03:42;95241.94;;;13.08;100.00
5500;BME280;2772;42.700;23.304;2023-05-19T01:06:09;95238.00;;;12.97;100.00
5500;BME280;2772;42.700;23.304;2023-05-19T01:08:37;95239.88;;;12.96;100.00
5500;BME280;2772;42.700;23.304;2023-05-19T01:11:04;95234.09;;;12.86;100.00
5500;BME280;2772;42.700;23.304;2023-05-19T01:13:32;95237.38;;;12.91;100.00
5500;BME280;2772;42.700;23.304;2023-05-19T01:16:03;95231.56;;;12.89;100.00
5500;BME280;2772;42.700;23.304;2023-05-19T01:18:40;95242.72;;;12.82;100.00
5500;BME280;2772;42.700;23.304;2023-05-19T01:21:35;95245.09;;;12.84;100.00
5500;BME280;2772;42.700;23.304;2023-05-19T01:24:29;95233.00;;;12.78;100.00
5500;BME280;2772;42.700;23.304;2023-05-19T01:27:12;95239.13;;;12.78;100.00
5500;BME280;2772;42.700;23.304;2023-05-19T01:29:49;95234.72;;;12.65;100.00
5500;BME280;2772;42.700;23.304;2023-05-19T01:32:26;95227.03;;;12.64;100.00
5500;BME280;2772;42.700;23.304;2023-05-19T01:34:55;95232.22;;;12.52;100.00
5500;BME280;2772;42.700;23.304;2023-05-19T01:37:23;95233.66;;;12.58;100.00
5500;BME280;2772;42.700;23.304;2023-05-19T01:39:51;95240.72;;;12.62;100.00
5500;BME280;2772;42.700;23.304;2023-05-19T01:42:20;95245.09;;;12.58;100.00
5500;BME280;2772;42.700;23.304;2023-05-19T01:44:48;95245.88;;;12.59;100.00
5500;BME280;2772;42.700;23.304;2023-05-19T01:47:15;95251.41;;;12.62;100.00
5500;BME280;2772;42.700;23.304;2023-05-19T01:49:43;95238.19;;;12.57;100.00
5500;BME280;2772;42.700;23.304;2023-05-19T01:52:10;95236.47;;;12.53;100.00
5500;BME280;2772;42.700;23.304;2023-05-19T01:54:37;95239.13;;;12.44;100.00
5500;BME280;2772;42.700;23.304;2023-05-19T01:57:09;95233.63;;;12.32;100.00
5500;BME280;2772;42.700;23.304;2023-05-19T01:59:46;95240.69;;;12.37;100.00
5500;BME280;2772;42.700;23.304;2023-05-19T02:02:24;95245.41;;;12.40;100.00
5500;BME280;2772;42.700;23.304;2023-05-19T02:04:58;95232.53;;;12.42;100.00
5500;BME280;2772;42.700;23.304;2023-05-19T02:07:30;95238.03;;;12.37;100.00
5500;BME280;2772;42.700;23.304;2023-05-19T02:10:04;95245.25;;;12.28;100.00
5500;BME280;2772;42.700;23.304;2023-05-19T02:12:33;95240.41;;;12.30;100.00
5500;BME280;2772;42.700;23.304;2023-05-19T02:15:04;95240.53;;;12.33;100.00
5500;BME280;2772;42.700;23.304;2023-05-19T02:17:34;95241.97;;;12.39;100.00
5500;BME280;2772;42.700;23.304;2023-05-19T02:20:04;95244.78;;;12.34;100.00
5500;BME280;2772;42.700;23.304;2023-05-19T02:22:31;95249.69;;;12.41;100.00
5500;BME280;2772;42.700;23.304;2023-05-19T02:24:58;95242.13;;;12.43;100.00
5500;BME280;2772;42.700;23.304;2023-05-19T02:27:25;95239.13;;;12.36;100.00
5500;BME280;2772;42.700;23.304;2023-05-19T02:29:52;95244.16;;;12.37;100.00
5500;BME280;2772;42.700;23.304;2023-05-19T02:32:20;95239.91;;;12.28;100.00
5500;BME280;2772;42.700;23.304;2023-05-19T02:34:47;95238.81;;;12.29;100.00
5500;BME280;2772;42.700;23.304;2023-05-19T02:37:15;95243.84;;;12.22;100.00
5500;BME280;2772;42.700;23.304;2023-05-19T02:39:42;95233.47;;;12.20;100.00
5500;BME280;2772;42.700;23.304;2023-05-19T02:42:09;95241.47;;;12.12;100.00
5500;BME280;2772;42.700;23.304;2023-05-19T02:44:36;95255.28;;;12.14;100.00
5500;BME280;2772;42.700;23.304;2023-05-19T02:47:03;95246.00;;;12.03;100.00
5500;BME280;2772;42.700;23.304;2023-05-19T02:49:30;95252.13;;;12.03;100.00
5500;BME280;2772;42.700;23.304;2023-05-19T02:52:00;95246.28;;;11.93;100.00
5500;BME280;2772;42.700;23.304;2023-05-19T02:54:29;95246.09;;;11.81;100.00
5500;BME280;2772;42.700;23.304;2023-05-19T02:56:55;95233.41;;;11.86;100.00
5500;BME280;2772;42.700;23.304;2023-05-19T02:59:22;95245.03;;;11.90;100.00
5500;BME280;2772;42.700;23.304;2023-05-19T03:01:50;95251.78;;;11.88;100.00
5500;BME280;2772;42.700;23.304;2023-05-19T03:04:17;95252.88;;;11.87;100.00
5500;BME280;2772;42.700;23.304;2023-05-19T03:06:44;95254.59;;;11.83;100.00
5500;BME280;2772;42.700;23.304;2023-05-19T03:09:11;95262.91;;;11.81;100.00
5500;BME280;2772;42.700;23.304;2023-05-19T03:11:40;95256.16;;;11.75;100.00
5500;BME280;2772;42.700;23.304;2023-05-19T03:14:07;95251.44;;;11.72;100.00
5500;BME280;2772;42.700;23.304;2023-05-19T03:16:34;95258.47;;;11.68;100.00
5500;BME280;2772;42.700;23.304;2023-05-19T03:19:01;95260.06;;;11.78;100.00
5500;BME280;2772;42.700;23.304;2023-05-19T03:21:27;95246.41;;;11.79;100.00
5500;BME280;2772;42.700;23.304;2023-05-19T03:23:56;95256.59;;;11.77;100.00
5500;BME280;2772;42.700;23.304;2023-05-19T03:26:22;95256.00;;;11.80;100.00
5500;BME280;2772;42.700;23.304;2023-05-19T03:28:51;95255.84;;;11.77;100.00
5500;BME280;2772;42.700;23.304;2023-05-19T03:31:18;95253.63;;;11.79;100.00
5500;BME280;2772;42.700;23.304;2023-05-19T03:33:45;95261.63;;;11.79;100.00
5500;BME280;2772;42.700;23.304;2023-05-19T03:36:12;95252.53;;;11.80;100.00
5500;BME280;2772;42.700;23.304;2023-05-19T03:38:38;95251.25;;;11.77;100.00
5500;BME280;2772;42.700;23.304;2023-05-19T03:41:05;95251.94;;;11.83;100.00
5500;BME280;2772;42.700;23.304;2023-05-19T03:43:32;95258.69;;;11.89;100.00
5500;BME280;2772;42.700;23.304;2023-05-19T03:46:00;95255.72;;;11.90;100.00
5500;BME280;2772;42.700;23.304;2023-05-19T03:48:27;95254.28;;;11.93;100.00
5500;BME280;2772;42.700;23.304;2023-05-19T03:50:54;95259.50;;;11.98;100.00
5500;BME280;2772;42.700;23.304;2023-05-19T03:53:21;95261.41;;;12.06;100.00
5500;BME280;2772;42.700;23.304;2023-05-19T03:55:47;95270.50;;;12.13;100.00
5500;BME280;2772;42.700;23.304;2023-05-19T03:58:15;95265.69;;;12.24;100.00
5500;BME280;2772;42.700;23.304;2023-05-19T04:00:41;95270.41;;;12.27;100.00
5500;BME280;2772;42.700;23.304;2023-05-19T04:03:10;95266.13;;;12.17;100.00
5500;BME280;2772;42.700;23.304;2023-05-19T04:05:36;95271.50;;;12.34;100.00
5500;BME280;2772;42.700;23.304;2023-05-19T04:08:03;95284.69;;;12.48;100.00
5500;BME280;2772;42.700;23.304;2023-05-19T04:10:30;95286.75;;;12.59;100.00
5500;BME280;2772;42.700;23.304;2023-05-19T04:12:57;95276.69;;;12.65;100.00
5500;BME280;2772;42.700;23.304;2023-05-19T04:15:24;95278.91;;;12.97;100.00
5500;BME280;2772;42.700;23.304;2023-05-19T04:17:51;95279.97;;;13.22;100.00
5500;BME280;2772;42.700;23.304;2023-05-19T04:20:19;95277.09;;;13.35;100.00
5500;BME280;2772;42.700;23.304;2023-05-19T04:22:46;95291.88;;;13.50;100.00
5500;BME280;2772;42.700;23.304;2023-05-19T04:25:16;95300.31;;;13.69;100.00
5500;BME280;2772;42.700;23.304;2023-05-19T04:27:46;95303.41;;;13.79;100.00
5500;BME280;2772;42.700;23.304;2023-05-19T04:30:13;95309.09;;;13.69;100.00
5500;BME280;2772;42.700;23.304;2023-05-19T04:32:46;95304.84;;;13.77;100.00
5500;BME280;2772;42.700;23.304;2023-05-19T04:35:13;95308.88;;;13.91;100.00
5500;BME280;2772;42.700;23.304;2023-05-19T04:37:43;95315.81;;;13.92;100.00
5500;BME280;2772;42.700;23.304;2023-05-19T04:40:11;95325.88;;;13.95;100.00
5500;BME280;2772;42.700;23.304;2023-05-19T04:42:37;95318.44;;;14.01;100.00
5500;BME280;2772;42.700;23.304;2023-05-19T04:45:08;95314.59;;;14.10;100.00
5500;BME280;2772;42.700;23.304;2023-05-19T04:47:36;95316.81;;;14.08;100.00
5500;BME280;2772;42.700;23.304;2023-05-19T04:50:04;95319.00;;;14.15;100.00
5500;BME280;2772;42.700;23.304;2023-05-19T04:52:31;95314.44;;;14.15;100.00
5500;BME280;2772;42.700;23.304;2023-05-19T04:54:59;95327.16;;;14.27;100.00
5500;BME280;2772;42.700;23.304;2023-05-19T04:57:26;95320.47;;;14.42;100.00
5500;BME280;2772;42.700;23.304;2023-05-19T04:59:53;95317.78;;;14.42;100.00
5500;BME280;2772;42.700;23.304;2023-05-19T05:02:24;95331.81;;;14.39;100.00
5500;BME280;2772;42.700;23.304;2023-05-19T05:04:51;95328.50;;;14.42;100.00
5500;BME280;2772;42.700;23.304;2023-05-19T05:07:18;95325.13;;;14.53;100.00
5500;BME280;2772;42.700;23.304;2023-05-19T05:09:46;95322.69;;;14.60;100.00
5500;BME280;2772;42.700;23.304;2023-05-19T05:12:16;95333.06;;;14.70;100.00
5500;BME280;2772;42.700;23.304;2023-05-19T05:14:43;95331.13;;;14.71;100.00
5500;BME280;2772;42.700;23.304;2023-05-19T05:17:11;95329.09;;;14.68;100.00
5500;BME280;2772;42.700;23.304;2023-05-19T05:19:38;95339.19;;;14.71;100.00
5500;BME280;2772;42.700;23.304;2023-05-19T05:22:06;95341.41;;;14.69;100.00
5500;BME280;2772;42.700;23.304;2023-05-19T05:24:33;95336.25;;;14.84;100.00
5500;BME280;2772;42.700;23.304;2023-05-19T05:27:00;95334.44;;;14.97;100.00
5500;BME280;2772;42.700;23.304;2023-05-19T05:29:28;95334.94;;;15.11;100.00
5500;BME280;2772;42.700;23.304;2023-05-19T05:31:55;95329.81;;;15.18;100.00
5500;BME280;2772;42.700;23.304;2023-05-19T05:34:22;95343.94;;;15.27;100.00
5500;BME280;2772;42.700;23.304;2023-05-19T05:36:48;95337.38;;;15.36;100.00
5500;BME280;2772;42.700;23.304;2023-05-19T05:39:15;95339.75;;;15.38;100.00
5500;BME280;2772;42.700;23.304;2023-05-19T05:41:42;95352.13;;;15.51;100.00
5500;BME280;2772;42.700;23.304;2023-05-19T05:44:09;95343.19;;;15.59;100.00
5500;BME280;2772;42.700;23.304;2023-05-19T05:46:37;95350.06;;;15.68;100.00
5500;BME280;2772;42.700;23.304;2023-05-19T05:49:05;95345.38;;;15.77;100.00
5500;BME280;2772;42.700;23.304;2023-05-19T05:51:32;95355.25;;;15.85;100.00
5500;BME280;2772;42.700;23.304;2023-05-19T05:53:59;95364.78;;;15.95;100.00
5500;BME280;2772;42.700;23.304;2023-05-19T05:56:27;95366.00;;;15.98;100.00
5500;BME280;2772;42.700;23.304;2023-05-19T05:58:54;95368.81;;;16.01;100.00
5500;BME280;2772;42.700;23.304;2023-05-19T06:01:21;95371.03;;;15.99;100.00
5500;BME280;2772;42.700;23.304;2023-05-19T06:03:49;95381.69;;;16.08;100.00
5500;BME280;2772;42.700;23.304;2023-05-19T06:06:16;95380.13;;;16.07;100.00
5500;BME280;2772;42.700;23.304;2023-05-19T06:08:43;95391.88;;;16.02;100.00
5500;BME280;2772;42.700;23.304;2023-05-19T06:11:09;95384.38;;;16.08;100.00
5500;BME280;2772;42.700;23.304;2023-05-19T06:13:37;95383.84;;;16.14;100.00
5500;BME280;2772;42.700;23.304;2023-05-19T06:16:06;95377.81;;;16.17;100.00
5500;BME280;2772;42.700;23.304;2023-05-19T06:18:33;95380.25;;;16.22;100.00
5500;BME280;2772;42.700;23.304;2023-05-19T06:21:01;95381.75;;;16.44;100.00
5500;BME280;2772;42.700;23.304;2023-05-19T06:23:29;95375.81;;;16.74;100.00
5500;BME280;2772;42.700;23.304;2023-05-19T06:25:56;95383.19;;;16.77;100.00
5500;BME280;2772;42.700;23.304;2023-05-19T06:28:23;95387.78;;;16.89;100.00
5500;BME280;2772;42.700;23.304;2023-05-19T06:30:50;95382.50;;;17.04;100.00
5500;BME280;2772;42.700;23.304;2023-05-19T06:33:17;95384.34;;;17.16;100.00
5500;BME280;2772;42.700;23.304;2023-05-19T06:35:44;95392.09;;;17.17;100.00
5500;BME280;2772;42.700;23.304;2023-05-19T06:38:12;95392.75;;;17.26;100.00
5500;BME280;2772;42.700;23.304;2023-05-19T06:40:39;95392.38;;;17.40;100.00
5500;BME280;2772;42.700;23.304;2023-05-19T06:43:06;95386.84;;;17.49;100.00
5500;BME280;2772;42.700;23.304;2023-05-19T06:45:33;95386.53;;;17.50;100.00
5500;BME280;2772;42.700;23.304;2023-05-19T06:47:59;95392.47;;;17.56;100.00
5500;BME280;2772;42.700;23.304;2023-05-19T06:50:26;95400.09;;;17.41;100.00
5500;BME280;2772;42.700;23.304;2023-05-19T06:52:53;95393.94;;;17.41;100.00
5500;BME280;2772;42.700;23.304;2023-05-19T06:55:23;95406.16;;;17.51;100.00
5500;BME280;2772;42.700;23.304;2023-05-19T06:57:49;95405.06;;;17.52;100.00
5500;BME280;2772;42.700;23.304;2023-05-19T07:00:16;95412.97;;;17.60;100.00
5500;BME280;2772;42.700;23.304;2023-05-19T07:02:43;95421.69;;;17.69;100.00
5500;BME280;2772;42.700;23.304;2023-05-19T07:05:10;95414.06;;;17.71;100.00
5500;BME280;2772;42.700;23.304;2023-05-19T07:07:37;95415.25;;;17.86;100.00
5500;BME280;2772;42.700;23.304;2023-05-19T07:10:04;95421.38;;;17.86;100.00
5500;BME280;2772;42.700;23.304;2023-05-19T07:12:32;95430.03;;;17.92;100.00
5500;BME280;2772;42.700;23.304;2023-05-19T07:14:59;95419.41;;;17.99;100.00
5500;BME280;2772;42.700;23.304;2023-05-19T07:17:26;95416.72;;;17.99;100.00
5500;BME280;2772;42.700;23.304;2023-05-19T07:19:53;95422.97;;;17.87;100.00
5500;BME280;2772;42.700;23.304;2023-05-19T07:22:19;95418.75;;;17.74;100.00
5500;BME280;2772;42.700;23.304;2023-05-19T07:24:48;95415.41;;;17.93;100.00
5500;BME280;2772;42.700;23.304;2023-05-19T07:27:15;95432.38;;;17.93;100.00
5500;BME280;2772;42.700;23.304;2023-05-19T07:29:43;95429.72;;;18.09;100.00
5500;BME280;2772;42.700;23.304;2023-05-19T07:32:11;95429.53;;;18.17;100.00
5500;BME280;2772;42.700;23.304;2023-05-19T07:34:37;95433.22;;;18.25;100.00
5500;BME280;2772;42.700;23.304;2023-05-19T07:37:04;95423.59;;;18.39;100.00
5500;BME280;2772;42.700;23.304;2023-05-19T07:39:32;95422.28;;;18.49;100.00
5500;BME280;2772;42.700;23.304;2023-05-19T07:41:59;95422.13;;;18.57;100.00
5500;BME280;2772;42.700;23.304;2023-05-19T07:44:26;95433.69;;;18.58;100.00
5500;BME280;2772;42.700;23.304;2023-05-19T07:46:57;95424.22;;;18.64;100.00
5500;BME280;2772;42.700;23.304;2023-05-19T07:49:23;95428.72;;;18.60;100.00
5500;BME280;2772;42.700;23.304;2023-05-19T07:51:50;95425.53;;;18.70;100.00
5500;BME280;2772;42.700;23.304;2023-05-19T07:54:17;95421.91;;;18.81;100.00
5500;BME280;2772;42.700;23.304;2023-05-19T07:56:43;95428.44;;;18.96;100.00
5500;BME280;2772;42.700;23.304;2023-05-19T07:59:10;95424.78;;;19.04;100.00
5500;BME280;2772;42.700;23.304;2023-05-19T08:01:37;95427.47;;;19.04;100.00
5500;BME280;2772;42.700;23.304;2023-05-19T08:04:05;95426.53;;;18.97;100.00
5500;BME280;2772;42.700;23.304;2023-05-19T08:06:32;95431.06;;;18.92;100.00
5500;BME280;2772;42.700;23.304;2023-05-19T08:08:59;95421.84;;;18.93;100.00
5500;BME280;2772;42.700;23.304;2023-05-19T08:11:26;95431.31;;;19.03;100.00
5500;BME280;2772;42.700;23.304;2023-05-19T08:13:52;95427.78;;;19.18;100.00
5500;BME280;2772;42.700;23.304;2023-05-19T08:16:19;95434.38;;;19.36;100.00
5500;BME280;2772;42.700;23.304;2023-05-19T08:18:46;95433.31;;;19.41;100.00
5500;BME280;2772;42.700;23.304;2023-05-19T08:21:14;95433.84;;;19.46;100.00
5500;BME280;2772;42.700;23.304;2023-05-19T08:23:41;95441.44;;;19.41;100.00
5500;BME280;2772;42.700;23.304;2023-05-19T08:26:08;95438.53;;;19.49;100.00
5500;BME280;2772;42.700;23.304;2023-05-19T08:28:34;95436.16;;;19.29;100.00
5500;BME280;2772;42.700;23.304;2023-05-19T08:31:01;95425.66;;;19.27;100.00
5500;BME280;2772;42.700;23.304;2023-05-19T08:33:28;95428.50;;;19.31;100.00
5500;BME280;2772;42.700;23.304;2023-05-19T08:35:55;95424.44;;;19.40;100.00
5500;BME280;2772;42.700;23.304;2023-05-19T08:38:24;95422.47;;;19.37;100.00
5500;BME280;2772;42.700;23.304;2023-05-19T08:40:51;95429.59;;;19.45;100.00
5500;BME280;2772;42.700;23.304;2023-05-19T08:43:18;95428.06;;;19.48;100.00
5500;BME280;2772;42.700;23.304;2023-05-19T08:45:45;95423.25;;;19.57;100.00
5500;BME280;2772;42.700;23.304;2023-05-19T08:48:12;95430.63;;;19.60;100.00
5500;BME280;2772;42.700;23.304;2023-05-19T08:50:40;95427.53;;;19.58;100.00
5500;BME280;2772;42.700;23.304;2023-05-19T08:53:12;95423.25;;;19.57;100.00
5500;BME280;2772;42.700;23.304;2023-05-19T08:55:47;95422.75;;;19.70;100.00
5500;BME280;2772;42.700;23.304;2023-05-19T08:58:17;95432.06;;;19.73;100.00
5500;BME280;2772;42.700;23.304;2023-05-19T09:00:46;95434.50;;;19.78;100.00
5500;BME280;2772;42.700;23.304;2023-05-19T09:03:14;95425.16;;;19.75;100.00
5500;BME280;2772;42.700;23.304;2023-05-19T09:05:42;95414.22;;;19.68;100.00
5500;BME280;2772;42.700;23.304;2023-05-19T09:08:10;95413.78;;;19.66;100.00
5500;BME280;2772;42.700;23.304;2023-05-19T09:10:37;95410.25;;;19.62;100.00
5500;BME280;2772;42.700;23.304;2023-05-19T09:13:05;95407.94;;;19.64;100.00
5500;BME280;2772;42.700;23.304;2023-05-19T09:15:33;95410.56;;;19.80;100.00
5500;BME280;2772;42.700;23.304;2023-05-19T09:18:08;95415.50;;;19.93;100.00
5500;BME280;2772;42.700;23.304;2023-05-19T09:20:36;95402.09;;;20.00;100.00
5500;BME280;2772;42.700;23.304;2023-05-19T09:23:04;95398.66;;;20.03;100.00
5500;BME280;2772;42.700;23.304;2023-05-19T09:25:32;95399.91;;;20.06;100.00
5500;BME280;2772;42.700;23.304;2023-05-19T09:27:59;95404.72;;;19.97;100.00
5500;BME280;2772;42.700;23.304;2023-05-19T09:30:27;95404.06;;;20.03;100.00
5500;BME280;2772;42.700;23.304;2023-05-19T09:32:54;95399.94;;;20.09;100.00
5500;BME280;2772;42.700;23.304;2023-05-19T09:35:21;95396.47;;;20.09;100.00
5500;BME280;2772;42.700;23.304;2023-05-19T09:37:47;95392.78;;;20.17;100.00
5500;BME280;2772;42.700;23.304;2023-05-19T09:40:15;95392.44;;;20.18;100.00
5500;BME280;2772;42.700;23.304;2023-05-19T09:42:42;95391.28;;;20.19;100.00
5500;BME280;2772;42.700;23.304;2023-05-19T09:45:09;95395.84;;;20.15;100.00
5500;BME280;2772;42.700;23.304;2023-05-19T09:47:39;95403.00;;;20.27;100.00
5500;BME280;2772;42.700;23.304;2023-05-19T09:50:08;95394.22;;;20.33;100.00
5500;BME280;2772;42.700;23.304;2023-05-19T09:52:42;95387.88;;;20.45;100.00
5500;BME280;2772;42.700;23.304;2023-05-19T09:55:10;95394.22;;;20.56;100.00
5500;BME280;2772;42.700;23.304;2023-05-19T09:57:39;95389.75;;;20.67;100.00
5500;BME280;2772;42.700;23.304;2023-05-19T10:00:07;95382.09;;;20.73;100.00
5500;BME280;2772;42.700;23.304;2023-05-19T10:02:42;95376.13;;;20.86;100.00
5500;BME280;2772;42.700;23.304;2023-05-19T10:05:11;95379.69;;;20.90;100.00
5500;BME280;2772;42.700;23.304;2023-05-19T10:07:41;95375.97;;;20.98;100.00
5500;BME280;2772;42.700;23.304;2023-05-19T10:10:11;95377.34;;;21.15;100.00
5500;BME280;2772;42.700;23.304;2023-05-19T10:12:38;95370.94;;;21.26;100.00
5500;BME280;2772;42.700;23.304;2023-05-19T10:15:08;95370.97;;;21.30;99.17
5500;BME280;2772;42.700;23.304;2023-05-19T10:17:37;95361.91;;;21.19;100.00
5500;BME280;2772;42.700;23.304;2023-05-19T10:20:07;95366.41;;;21.37;100.00
5500;BME280;2772;42.700;23.304;2023-05-19T10:22:35;95363.00;;;21.44;100.00
5500;BME280;2772;42.700;23.304;2023-05-19T10:25:02;95369.66;;;21.50;100.00
5500;BME280;2772;42.700;23.304;2023-05-19T10:27:29;95365.72;;;21.44;97.26
5500;BME280;2772;42.700;23.304;2023-05-19T10:30:01;95366.94;;;21.50;92.93
5500;BME280;2772;42.700;23.304;2023-05-19T10:32:30;95357.13;;;21.68;92.27
5500;BME280;2772;42.700;23.304;2023-05-19T10:38:05;95353.84;;;22.22;89.27
5500;BME280;2772;42.700;23.304;2023-05-19T10:40:39;95360.91;;;22.33;84.02
5500;BME280;2772;42.700;23.304;2023-05-19T10:43:18;95366.41;;;22.40;81.98
5500;BME280;2772;42.700;23.304;2023-05-19T10:45:49;95357.44;;;22.36;81.49
5500;BME280;2772;42.700;23.304;2023-05-19T10:48:19;95360.19;;;22.40;78.76
5500;BME280;2772;42.700;23.304;2023-05-19T10:50:46;95348.56;;;22.39;79.70
5500;BME280;2772;42.700;23.304;2023-05-19T10:53:15;95350.38;;;22.28;80.46
5500;BME280;2772;42.700;23.304;2023-05-19T10:55:44;95341.75;;;22.16;77.70
5500;BME280;2772;42.700;23.304;2023-05-19T10:58:13;95337.94;;;22.24;83.87
5500;BME280;2772;42.700;23.304;2023-05-19T11:00:39;95335.31;;;22.34;81.43
5500;BME280;2772;42.700;23.304;2023-05-19T11:03:13;95338.09;;;22.41;79.67
5500;BME280;2772;42.700;23.304;2023-05-19T11:05:40;95343.25;;;22.53;79.15
5500;BME280;2772;42.700;23.304;2023-05-19T11:08:10;95351.81;;;22.55;78.38
5500;BME280;2772;42.700;23.304;2023-05-19T11:10:38;95344.31;;;22.45;76.74
5500;BME280;2772;42.700;23.304;2023-05-19T11:13:17;95342.78;;;22.44;75.77
5500;BME280;2772;42.700;23.304;2023-05-19T11:15:45;95342.38;;;22.42;74.43
5500;BME280;2772;42.700;23.304;2023-05-19T11:18:12;95344.25;;;22.35;76.16
5500;BME280;2772;42.700;23.304;2023-05-19T11:20:40;95338.41;;;22.29;73.71
5500;BME280;2772;42.700;23.304;2023-05-19T11:23:07;95326.81;;;22.36;74.11
5500;BME280;2772;42.700;23.304;2023-05-19T11:25:43;95339.22;;;22.37;72.13
5500;BME280;2772;42.700;23.304;2023-05-19T11:28:11;95333.22;;;22.57;73.90
5500;BME280;2772;42.700;23.304;2023-05-19T11:30:41;95334.84;;;22.69;73.19
5500;BME280;2772;42.700;23.304;2023-05-19T11:33:09;95331.81;;;22.77;74.71
5500;BME280;2772;42.700;23.304;2023-05-19T11:35:36;95327.22;;;22.88;75.63
5500;BME280;2772;42.700;23.304;2023-05-19T11:38:02;95331.84;;;22.84;76.63
5500;BME280;2772;42.700;23.304;2023-05-19T11:40:31;95331.34;;;22.65;74.53
5500;BME280;2772;42.700;23.304;2023-05-19T11:42:59;95326.97;;;22.53;75.10
5500;BME280;2772;42.700;23.304;2023-05-19T11:45:30;95330.84;;;22.52;76.49
5500;BME280;2772;42.700;23.304;2023-05-19T11:47:57;95341.53;;;22.35;74.85
5500;BME280;2772;42.700;23.304;2023-05-19T11:50:25;95339.19;;;22.33;75.02
5500;BME280;2772;42.700;23.304;2023-05-19T11:52:52;95338.41;;;22.29;77.09
5500;BME280;2772;42.700;23.304;2023-05-19T11:55:19;95337.97;;;22.27;75.77
5500;BME280;2772;42.700;23.304;2023-05-19T11:57:55;95351.22;;;22.32;77.49
5500;BME280;2772;42.700;23.304;2023-05-19T12:00:24;95339.00;;;22.12;86.82
5500;BME280;2772;42.700;23.304;2023-05-19T12:02:51;95345.91;;;22.06;91.07
5500;BME280;2772;42.700;23.304;2023-05-19T12:05:19;95353.38;;;21.76;94.09
5500;BME280;2772;42.700;23.304;2023-05-19T12:07:46;95361.13;;;21.77;95.21
5500;BME280;2772;42.700;23.304;2023-05-19T12:10:16;95390.09;;;21.73;99.12
5500;BME280;2772;42.700;23.304;2023-05-19T12:12:44;95388.13;;;21.41;97.68
5500;BME280;2772;42.700;23.304;2023-05-19T12:15:11;95399.53;;;20.98;100.00
5500;BME280;2772;42.700;23.304;2023-05-19T12:17:39;95402.09;;;20.65;100.00
5500;BME280;2772;42.700;23.304;2023-05-19T12:20:07;95415.69;;;20.45;100.00
5500;BME280;2772;42.700;23.304;2023-05-19T12:22:34;95406.97;;;20.33;100.00
5500;BME280;2772;42.700;23.304;2023-05-19T12:25:02;95408.66;;;20.18;100.00
5500;BME280;2772;42.700;23.304;2023-05-19T12:27:34;95402.72;;;20.13;100.00
5500;BME280;2772;42.700;23.304;2023-05-19T12:30:02;95400.91;;;19.98;100.00
5500;BME280;2772;42.700;23.304;2023-05-19T12:32:29;95393.34;;;19.88;100.00
5500;BME280;2772;42.700;23.304;2023-05-19T12:34:57;95398.84;;;19.91;100.00
5500;BME280;2772;42.700;23.304;2023-05-19T12:37:25;95387.97;;;19.69;100.00
5500;BME280;2772;42.700;23.304;2023-05-19T12:39:54;95386.56;;;19.75;100.00
5500;BME280;2772;42.700;23.304;2023-05-19T12:42:22;95392.16;;;19.66;100.00
5500;BME280;2772;42.700;23.304;2023-05-19T12:44:50;95387.31;;;19.56;100.00
5500;BME280;2772;42.700;23.304;2023-05-19T12:47:18;95383.28;;;19.66;100.00
5500;BME280;2772;42.700;23.304;2023-05-19T12:49:55;95358.19;;;19.65;100.00
5500;BME280;2772;42.700;23.304;2023-05-19T12:52:23;95357.13;;;19.92;100.00
5500;BME280;2772;42.700;23.304;2023-05-19T12:54:57;95349.44;;;20.13;100.00
5500;BME280;2772;42.700;23.304;2023-05-19T12:57:24;95359.88;;;20.37;100.00
5500;BME280;2772;42.700;23.304;2023-05-19T12:59:51;95349.13;;;20.41;100.00
5500;BME280;2772;42.700;23.304;2023-05-19T13:02:18;95345.25;;;20.65;100.00
5500;BME280;2772;42.700;23.304;2023-05-19T13:04:45;95350.97;;;20.60;100.00
5500;BME280;2772;42.700;23.304;2023-05-19T13:07:12;95345.75;;;20.74;99.81
5500;BME280;2772;42.700;23.304;2023-05-19T13:09:40;95338.94;;;20.83;95.91
5500;BME280;2772;42.700;23.304;2023-05-19T13:12:07;95345.75;;;20.96;93.70